Time,TemperatureF,DewpointF,PressureIn,WindDirection,WindDirectionDegrees,WindSpeedMPH,WindSpeedGustMPH,Humidity,HourlyPrecipIn,Conditions,Clouds,dailyrainin,SolarRadiationWatts/m^2,SoftwareType,DateUTC
2013-03-14 00:02:00,45.0,19.0,-100.00,NE,56,2.0,11.0,35,0.00,,,0.00,0.000000,,2013-03-14 06:02:00,
2013-03-14 00:12:00,45.0,19.0,-100.00,NE,56,2.0,11.0,35,0.00,,,0.00,0.000000,,2013-03-14 06:12:00,
2013-03-14 00:22:00,45.0,19.0,-100.00,NE,56,2.0,11.0,35,0.00,,,0.00,0.000000,,2013-03-14 06:22:00,
2013-03-14 00:32:00,45.0,19.0,-100.00,NE,56,2.0,11.0,35,0.00,,,0.00,0.000000,,2013-03-14 06:32:00,
2013-03-14 00:42:00,45.0,19.0,-100.00,NE,56,2.0,11.0,35,0.00,,,0.00,0.000000,,2013-03-14 06:42:00,
2013-03-14 01:02:00,45.0,19.0,-100.00,North,6,7.0,12.0,35,0.00,,,0.00,0.000000,,2013-03-14 07:02:00,
2013-03-14 01:12:00,45.0,19.0,-100.00,North,6,7.0,12.0,35,0.00,,,0.00,0.000000,,2013-03-14 07:12:00,
2013-03-14 01:22:00,45.0,19.0,-100.00,North,6,7.0,12.0,35,0.00,,,0.00,0.000000,,2013-03-14 07:22:00,
2013-03-14 01:32:00,45.0,19.0,-100.00,North,6,7.0,12.0,35,0.00,,,0.00,0.000000,,2013-03-14 07:32:00,
2013-03-14 01:41:00,45.0,19.0,-100.00,North,6,7.0,12.0,35,0.00,,,0.00,0.000000,,2013-03-14 07:41:00,
2013-03-14 02:12:00,45.0,16.0,-100.00,NNE,16,6.0,14.0,31,0.00,,,0.00,0.000000,,2013-03-14 08:12:00,
2013-03-14 02:21:00,45.0,16.0,-100.00,NNE,16,6.0,14.0,31,0.00,,,0.00,0.000000,,2013-03-14 08:21:00,
2013-03-14 02:32:00,45.0,16.0,-100.00,NNE,16,6.0,14.0,31,0.00,,,0.00,0.000000,,2013-03-14 08:32:00,
2013-03-14 02:41:00,45.0,16.0,-100.00,NNE,16,6.0,14.0,31,0.00,,,0.00,0.000000,,2013-03-14 08:41:00,
2013-03-14 03:01:00,45.0,20.0,-100.00,NNE,30,6.0,10.0,37,0.00,,,0.00,0.000000,,2013-03-14 09:01:00,
2013-03-14 03:12:00,45.0,20.0,-100.00,NNE,30,6.0,10.0,37,0.00,,,0.00,0.000000,,2013-03-14 09:12:00,
2013-03-14 03:22:00,45.0,20.0,-100.00,NNE,30,6.0,10.0,37,0.00,,,0.00,0.000000,,2013-03-14 09:22:00,
2013-03-14 03:32:00,45.0,20.0,-100.00,NNE,30,6.0,10.0,37,0.00,,,0.00,0.000000,,2013-03-14 09:32:00,
2013-03-14 03:42:00,45.0,20.0,-100.00,NNE,30,6.0,10.0,37,0.00,,,0.00,0.000000,,2013-03-14 09:42:00,
2013-03-14 04:02:00,43.0,19.0,-100.00,NNE,29,7.0,12.0,38,0.00,,,0.00,0.000000,,2013-03-14 10:02:00,
2013-03-14 04:12:00,43.0,19.0,-100.00,NNE,29,7.0,12.0,38,0.00,,,0.00,0.000000,,2013-03-14 10:12:00,
2013-03-14 04:22:00,43.0,19.0,-100.00,NNE,29,7.0,12.0,38,0.00,,,0.00,0.000000,,2013-03-14 10:22:00,
2013-03-14 04:32:00,43.0,19.0,-100.00,NNE,29,7.0,12.0,38,0.00,,,0.00,0.000000,,2013-03-14 10:32:00,
2013-03-14 04:41:00,43.0,19.0,-100.00,NNE,29,7.0,12.0,38,0.00,,,0.00,0.000000,,2013-03-14 10:41:00,
2013-03-14 05:02:00,44.0,20.0,-100.00,NNE,32,5.0,9.0,38,0.00,,,-99.99,0.000000,,2013-03-14 11:02:00,
2013-03-14 05:12:00,44.0,20.0,-100.00,NNE,32,5.0,9.0,38,0.00,,,-99.99,0.000000,,2013-03-14 11:12:00,
2013-03-14 05:22:00,44.0,20.0,-100.00,NNE,32,5.0,9.0,38,0.00,,,-99.99,0.000000,,2013-03-14 11:22:00,
2013-03-14 05:32:00,44.0,20.0,-100.00,NNE,32,5.0,9.0,38,0.00,,,-99.99,0.000000,,2013-03-14 11:32:00,
2013-03-14 05:42:00,44.0,20.0,-100.00,NNE,32,5.0,9.0,38,0.00,,,-99.99,0.000000,,2013-03-14 11:42:00,
2013-03-14 06:02:00,42.0,18.0,-100.00,ENE,70,3.0,7.0,37,0.00,,,0.00,0.000000,,2013-03-14 12:02:00,
2013-03-14 06:12:00,42.0,18.0,-100.00,ENE,70,3.0,7.0,37,0.00,,,0.00,0.000000,,2013-03-14 12:12:00,
2013-03-14 06:22:00,42.0,18.0,-100.00,ENE,70,3.0,7.0,37,0.00,,,0.00,0.000000,,2013-03-14 12:22:00,
2013-03-14 06:32:00,42.0,18.0,-100.00,ENE,70,3.0,7.0,37,0.00,,,0.00,0.000000,,2013-03-14 12:32:00,
2013-03-14 06:42:00,42.0,18.0,-100.00,ENE,70,3.0,7.0,37,0.00,,,0.00,0.000000,,2013-03-14 12:42:00,
2013-03-14 07:02:00,43.0,17.0,-100.00,ENE,75,3.0,5.0,35,0.00,,,0.00,0.000000,,2013-03-14 13:02:00,
2013-03-14 07:12:00,43.0,17.0,-100.00,ENE,75,3.0,5.0,35,0.00,,,0.00,0.000000,,2013-03-14 13:12:00,
2013-03-14 07:22:00,43.0,17.0,-100.00,ENE,75,3.0,5.0,35,0.00,,,0.00,0.000000,,2013-03-14 13:22:00,
2013-03-14 07:32:00,43.0,17.0,-100.00,ENE,75,3.0,5.0,35,0.00,,,0.00,0.000000,,2013-03-14 13:32:00,
2013-03-14 07:42:00,43.0,17.0,-100.00,ENE,75,3.0,5.0,35,0.00,,,0.00,0.000000,,2013-03-14 13:42:00,
2013-03-14 08:02:00,41.0,19.0,-100.00,ENE,77,3.0,6.0,40,0.00,,,0.00,2.000000,,2013-03-14 14:02:00,
2013-03-14 08:12:00,41.0,19.0,-100.00,ENE,77,3.0,6.0,40,0.00,,,0.00,2.000000,,2013-03-14 14:12:00,
2013-03-14 08:22:00,41.0,19.0,-100.00,ENE,77,3.0,6.0,40,0.00,,,0.00,2.000000,,2013-03-14 14:22:00,
2013-03-14 08:32:00,41.0,19.0,-100.00,ENE,77,3.0,6.0,40,0.00,,,0.00,2.000000,,2013-03-14 14:32:00,
2013-03-14 08:42:00,41.0,19.0,-100.00,ENE,77,3.0,6.0,40,0.00,,,0.00,2.000000,,2013-03-14 14:42:00,
2013-03-14 09:02:00,50.0,21.0,-100.00,East,83,3.0,6.0,31,0.00,,,0.00,152.000000,,2013-03-14 15:02:00,
2013-03-14 10:02:00,55.0,21.0,-100.00,ESE,105,4.0,7.0,26,0.00,,,0.00,393.000000,,2013-03-14 16:02:00,
2013-03-14 10:22:00,55.0,21.0,-100.00,ESE,105,4.0,7.0,26,0.00,,,0.00,393.000000,,2013-03-14 16:22:00,
2013-03-14 10:32:00,55.0,21.0,-100.00,ESE,105,4.0,7.0,26,0.00,,,0.00,393.000000,,2013-03-14 16:32:00,
2013-03-14 10:42:00,55.0,21.0,-100.00,ESE,105,4.0,7.0,26,0.00,,,0.00,393.000000,,2013-03-14 16:42:00,
2013-03-14 11:02:00,60.0,23.0,-100.00,South,173,4.0,7.0,24,0.00,,,0.00,621.000000,,2013-03-14 17:02:00,
2013-03-14 12:02:00,62.0,25.0,-100.00,SW,231,6.0,9.0,24,0.00,,,0.00,857.000000,,2013-03-14 18:02:00,
2013-03-14 12:32:00,62.0,25.0,-100.00,SW,231,6.0,9.0,24,0.00,,,0.00,857.000000,,2013-03-14 18:32:00,
2013-03-14 12:42:00,62.0,25.0,-100.00,SW,231,6.0,9.0,24,0.00,,,0.00,857.000000,,2013-03-14 18:42:00,
2013-03-14 13:02:00,64.0,25.0,-100.00,WSW,249,6.0,12.0,23,0.00,,,0.00,1049.000000,,2013-03-14 19:02:00,
2013-03-14 13:12:00,64.0,25.0,-100.00,WSW,249,6.0,12.0,23,0.00,,,0.00,1049.000000,,2013-03-14 19:12:00,
2013-03-14 13:22:00,64.0,25.0,-100.00,WSW,249,6.0,12.0,23,0.00,,,0.00,1049.000000,,2013-03-14 19:22:00,
2013-03-14 13:32:00,64.0,25.0,-100.00,WSW,249,6.0,12.0,23,0.00,,,0.00,1049.000000,,2013-03-14 19:32:00,
2013-03-14 13:42:00,64.0,25.0,-100.00,WSW,249,6.0,12.0,23,0.00,,,0.00,1049.000000,,2013-03-14 19:42:00,
2013-03-14 15:02:00,67.0,26.0,-100.00,SW,236,7.0,13.0,21,-99.99,,,0.00,1096.000000,,2013-03-14 21:02:00,
2013-03-14 15:12:00,67.0,26.0,-100.00,SW,236,7.0,13.0,21,-99.99,,,0.00,1096.000000,,2013-03-14 21:12:00,
2013-03-14 15:22:00,67.0,26.0,-100.00,SW,236,7.0,13.0,21,-99.99,,,0.00,1096.000000,,2013-03-14 21:22:00,
2013-03-14 15:32:00,67.0,26.0,-100.00,SW,236,7.0,13.0,21,-99.99,,,0.00,1096.000000,,2013-03-14 21:32:00,
2013-03-14 15:43:00,67.0,26.0,-100.00,SW,236,7.0,13.0,21,-99.99,,,0.00,1096.000000,,2013-03-14 21:43:00,
2013-03-14 16:03:00,70.0,26.0,-100.00,West,267,6.0,16.0,19,0.00,,,-99.99,1001.000000,,2013-03-14 22:03:00,
2013-03-14 16:12:00,70.0,26.0,-100.00,West,267,6.0,16.0,19,0.00,,,-99.99,1001.000000,,2013-03-14 22:12:00,
2013-03-14 16:23:00,70.0,26.0,-100.00,West,267,6.0,16.0,19,0.00,,,-99.99,1001.000000,,2013-03-14 22:23:00,
2013-03-14 16:32:00,70.0,26.0,-100.00,West,267,6.0,16.0,19,0.00,,,-99.99,1001.000000,,2013-03-14 22:32:00,
2013-03-14 16:42:00,70.0,26.0,-100.00,West,267,6.0,16.0,19,0.00,,,-99.99,1001.000000,,2013-03-14 22:42:00,
2013-03-14 17:02:00,69.0,25.0,-100.00,WNW,302,7.0,15.0,19,0.00,,,0.00,806.000000,,2013-03-14 23:02:00,
2013-03-14 17:12:00,69.0,25.0,-100.00,WNW,302,7.0,15.0,19,0.00,,,0.00,806.000000,,2013-03-14 23:12:00,
2013-03-14 17:22:00,69.0,25.0,-100.00,WNW,302,7.0,15.0,19,0.00,,,0.00,806.000000,,2013-03-14 23:22:00,
2013-03-14 17:32:00,69.0,25.0,-100.00,WNW,302,7.0,15.0,19,0.00,,,0.00,806.000000,,2013-03-14 23:32:00,
2013-03-14 17:42:00,69.0,25.0,-100.00,WNW,302,7.0,15.0,19,0.00,,,0.00,806.000000,,2013-03-14 23:42:00,
2013-03-14 18:02:00,69.0,25.0,-100.00,WNW,296,8.0,15.0,19,0.00,,,0.00,561.000000,,2013-03-15 00:02:00,
2013-03-14 18:12:00,69.0,25.0,-100.00,WNW,296,8.0,15.0,19,0.00,,,0.00,561.000000,,2013-03-15 00:12:00,
2013-03-14 18:22:00,69.0,25.0,-100.00,WNW,296,8.0,15.0,19,0.00,,,0.00,561.000000,,2013-03-15 00:22:00,
2013-03-14 18:32:00,69.0,25.0,-100.00,WNW,296,8.0,15.0,19,0.00,,,0.00,561.000000,,2013-03-15 00:32:00,
2013-03-14 18:42:00,69.0,25.0,-100.00,WNW,296,8.0,15.0,19,0.00,,,0.00,561.000000,,2013-03-15 00:42:00,
2013-03-14 19:11:00,64.0,22.0,-100.00,WNW,282,6.0,14.0,20,0.00,,,0.00,279.000000,,2013-03-15 01:11:00,
2013-03-14 19:22:00,64.0,22.0,-100.00,WNW,282,6.0,14.0,20,0.00,,,0.00,279.000000,,2013-03-15 01:22:00,
2013-03-14 19:32:00,64.0,22.0,-100.00,WNW,282,6.0,14.0,20,0.00,,,0.00,279.000000,,2013-03-15 01:32:00,
2013-03-14 19:42:00,64.0,22.0,-100.00,WNW,282,6.0,14.0,20,0.00,,,0.00,279.000000,,2013-03-15 01:42:00,
2013-03-14 20:12:00,56.0,21.0,-100.00,West,281,6.0,8.0,25,0.00,,,0.00,13.000000,,2013-03-15 02:12:00,
2013-03-14 20:22:00,56.0,21.0,-100.00,West,281,6.0,8.0,25,0.00,,,0.00,13.000000,,2013-03-15 02:22:00,
2013-03-14 20:32:00,56.0,21.0,-100.00,West,281,6.0,8.0,25,0.00,,,0.00,13.000000,,2013-03-15 02:32:00,
2013-03-14 20:42:00,56.0,21.0,-100.00,West,281,6.0,8.0,25,0.00,,,0.00,13.000000,,2013-03-15 02:42:00,
2013-03-14 21:12:00,52.0,18.0,-100.00,SSE,151,1.0,7.0,26,0.00,,,0.00,0.000000,,2013-03-15 03:12:00,
2013-03-14 21:22:00,52.0,18.0,-100.00,SSE,151,1.0,7.0,26,0.00,,,0.00,0.000000,,2013-03-15 03:22:00,
2013-03-14 21:32:00,52.0,18.0,-100.00,SSE,151,1.0,7.0,26,0.00,,,0.00,0.000000,,2013-03-15 03:32:00,
2013-03-14 21:42:00,52.0,18.0,-100.00,SSE,151,1.0,7.0,26,0.00,,,0.00,0.000000,,2013-03-15 03:42:00,
2013-03-14 22:03:00,54.0,20.0,-100.00,ENE,70,2.0,3.0,26,0.00,,,0.00,0.000000,,2013-03-15 04:03:00,
2013-03-14 22:12:00,54.0,20.0,-100.00,ENE,70,2.0,3.0,26,0.00,,,0.00,0.000000,,2013-03-15 04:12:00,
2013-03-14 22:22:00,54.0,20.0,-100.00,ENE,70,2.0,3.0,26,0.00,,,0.00,0.000000,,2013-03-15 04:22:00,
2013-03-14 22:32:00,54.0,20.0,-100.00,ENE,70,2.0,3.0,26,0.00,,,0.00,0.000000,,2013-03-15 04:32:00,
2013-03-14 22:42:00,54.0,20.0,-100.00,ENE,70,2.0,3.0,26,0.00,,,0.00,0.000000,,2013-03-15 04:42:00,
2013-03-14 23:02:00,52.0,21.0,-100.00,ENE,69,3.0,5.0,29,0.00,,,0.00,0.000000,,2013-03-15 05:02:00,
2013-03-14 23:12:00,52.0,21.0,-100.00,ENE,69,3.0,5.0,29,0.00,,,0.00,0.000000,,2013-03-15 05:12:00,
2013-03-14 23:22:00,52.0,21.0,-100.00,ENE,69,3.0,5.0,29,0.00,,,0.00,0.000000,,2013-03-15 05:22:00,
2013-03-14 23:32:00,52.0,21.0,-100.00,ENE,69,3.0,5.0,29,0.00,,,0.00,0.000000,,2013-03-15 05:32:00,
2013-03-14 23:42:00,52.0,21.0,-100.00,ENE,69,3.0,5.0,29,0.00,,,0.00,0.000000,,2013-03-15 05:42:00,